createdAt,value
2023-01-12T00:01:50.063Z,4.85
2023-01-12T00:04:17.504Z,5.82
2023-01-12T00:06:45.121Z,5.53
2023-01-12T00:09:12.704Z,5.60
2023-01-12T00:11:41.045Z,5.78
2023-01-12T00:14:09.235Z,5.53
2023-01-12T00:16:39.574Z,5.50
2023-01-12T00:19:09.255Z,4.95
2023-01-12T00:21:43.484Z,4.82
2023-01-12T00:24:11.035Z,5.07
2023-01-12T00:26:38.364Z,5.30
2023-01-12T00:29:05.760Z,5.40
2023-01-12T00:31:33.263Z,5.70
2023-01-12T00:34:00.849Z,5.88
2023-01-12T00:36:28.213Z,5.80
2023-01-12T00:38:55.662Z,5.43
2023-01-12T00:41:41.600Z,5.35
2023-01-12T00:44:27.655Z,5.32
2023-01-12T00:46:55.195Z,5.78
2023-01-12T00:49:22.531Z,5.65
2023-01-12T00:51:49.965Z,5.82
2023-01-12T00:54:17.339Z,5.57
2023-01-12T00:56:44.816Z,5.10
2023-01-12T00:59:12.178Z,5.60
2023-01-12T01:01:39.715Z,4.65
2023-01-12T01:04:07.139Z,5.15
2023-01-12T01:06:34.619Z,5.50
2023-01-12T01:09:01.951Z,5.30
2023-01-12T01:11:29.405Z,5.22
2023-01-12T01:13:56.773Z,5.45
2023-01-12T01:16:24.143Z,4.72
2023-01-12T01:18:51.630Z,5.60
2023-01-12T01:21:19.004Z,5.82
2023-01-12T01:23:46.472Z,5.63
2023-01-12T01:26:15.364Z,6.35
2023-01-12T01:28:43.280Z,5.18
2023-01-12T01:31:13.356Z,5.63
2023-01-12T01:33:41.173Z,5.00
2023-01-12T01:36:09.221Z,5.60
2023-01-12T01:38:37.263Z,5.43
2023-01-12T01:41:05.356Z,5.75
2023-01-12T01:43:53.088Z,5.63
2023-01-12T01:46:26.206Z,5.13
2023-01-12T01:48:54.348Z,5.32
2023-01-12T01:51:22.339Z,5.57
2023-01-12T01:53:50.174Z,4.90
2023-01-12T01:56:20.702Z,5.45
2023-01-12T01:58:53.399Z,5.15
2023-01-12T02:01:21.012Z,5.15
2023-01-12T02:03:48.800Z,5.75
2023-01-12T02:06:16.424Z,6.63
2023-01-12T02:08:43.890Z,6.10
2023-01-12T02:11:30.171Z,6.75
2023-01-12T02:14:16.136Z,6.32
2023-01-12T02:16:58.671Z,6.18
2023-01-12T02:19:34.756Z,7.30
2023-01-12T02:22:04.901Z,6.90
2023-01-12T02:24:38.448Z,7.18
2023-01-12T02:27:09.043Z,7.43
2023-01-12T02:29:39.498Z,7.22
2023-01-12T02:32:09.168Z,6.90
2023-01-12T02:34:58.978Z,7.57
2023-01-12T02:37:32.443Z,7.07
2023-01-12T02:40:08.401Z,6.90
2023-01-12T02:42:41.533Z,7.28
2023-01-12T02:45:21.101Z,6.72
2023-01-12T02:47:57.700Z,7.57
2023-01-12T02:50:32.085Z,7.30
2023-01-12T02:53:03.602Z,8.00
2023-01-12T02:55:31.497Z,7.95
2023-01-12T02:57:59.323Z,7.78
2023-01-12T03:00:27.276Z,7.93
2023-01-12T03:02:54.648Z,8.80
2023-01-12T03:05:26.979Z,7.93
2023-01-12T03:07:56.602Z,8.13
2023-01-12T03:10:30.167Z,7.85
2023-01-12T03:12:59.701Z,8.52
2023-01-12T03:15:28.952Z,9.52
2023-01-12T03:18:00.488Z,8.88
2023-01-12T03:20:31.564Z,7.95
2023-01-12T03:23:02.763Z,7.40
2023-01-12T03:25:32.311Z,8.57
2023-01-12T03:28:00.472Z,7.95
2023-01-12T03:30:31.197Z,7.97
2023-01-12T03:32:58.711Z,7.68
2023-01-12T03:35:27.903Z,7.28
2023-01-12T03:37:55.334Z,7.80
2023-01-12T03:40:24.393Z,7.63
2023-01-12T03:42:58.128Z,7.85
2023-01-12T03:45:28.600Z,7.00
2023-01-12T03:47:58.025Z,7.28
2023-01-12T03:50:27.780Z,6.55
2023-01-12T03:52:55.864Z,7.47
2023-01-12T03:55:24.262Z,7.40
2023-01-12T03:57:52.474Z,7.53
2023-01-12T04:00:21.283Z,7.18
2023-01-12T04:02:48.683Z,6.20
2023-01-12T04:05:16.307Z,7.30
2023-01-12T04:07:43.731Z,7.22
2023-01-12T04:10:11.327Z,7.28
2023-01-12T04:12:39.088Z,6.95
2023-01-12T04:15:06.584Z,7.78
2023-01-12T04:17:34.073Z,7.65
2023-01-12T04:20:01.522Z,6.82
2023-01-12T04:22:44.420Z,7.28
2023-01-12T04:25:16.328Z,7.32
2023-01-12T04:27:50.033Z,6.88
2023-01-12T04:30:18.910Z,7.60
2023-01-12T04:32:46.563Z,7.13
2023-01-12T04:35:14.278Z,7.25
2023-01-12T04:37:41.605Z,6.75
2023-01-12T04:40:09.916Z,6.95
2023-01-12T04:42:56.344Z,7.35
2023-01-12T04:45:24.214Z,7.38
2023-01-12T04:47:51.600Z,7.43
2023-01-12T04:50:19.073Z,7.10
2023-01-12T04:52:46.529Z,6.90
2023-01-12T04:55:14.026Z,7.20
2023-01-12T04:57:41.353Z,7.35
2023-01-12T05:00:09.394Z,6.57
2023-01-12T05:02:36.815Z,6.88
2023-01-12T05:05:05.411Z,6.97
2023-01-12T05:07:32.928Z,6.88
2023-01-12T05:10:19.083Z,6.70
2023-01-12T05:12:46.511Z,6.80
2023-01-12T05:15:14.563Z,6.78
2023-01-12T05:17:41.929Z,6.90
2023-01-12T05:20:09.772Z,7.43
2023-01-12T05:22:37.108Z,7.13
2023-01-12T05:25:04.690Z,7.30
2023-01-12T05:27:32.118Z,7.30
2023-01-12T05:29:59.759Z,8.00
2023-01-12T05:32:27.508Z,8.82
2023-01-12T05:34:54.920Z,8.18
2023-01-12T05:37:22.236Z,8.07
2023-01-12T05:39:49.715Z,9.73
2023-01-12T05:42:35.476Z,9.07
2023-01-12T05:45:03.102Z,8.30
2023-01-12T05:47:30.453Z,8.15
2023-01-12T05:49:57.976Z,8.20
2023-01-12T05:52:25.336Z,7.28
2023-01-12T05:54:52.822Z,9.43
2023-01-12T05:57:20.157Z,9.80
2023-01-12T05:59:47.608Z,8.30
2023-01-12T06:02:17.594Z,8.18
2023-01-12T06:04:45.440Z,11.15
2023-01-12T06:07:13.694Z,11.57
2023-01-12T06:09:41.578Z,12.70
2023-01-12T06:12:32.258Z,11.40
2023-01-12T06:14:59.767Z,9.07
2023-01-12T06:17:27.384Z,8.98
2023-01-12T06:19:54.836Z,8.32
2023-01-12T06:22:22.255Z,9.02
2023-01-12T06:24:49.691Z,8.63
2023-01-12T06:27:17.361Z,8.13
2023-01-12T06:29:44.812Z,8.15
2023-01-12T06:32:12.176Z,9.02
2023-01-12T06:34:39.662Z,9.20
2023-01-12T06:37:08.302Z,10.45
2023-01-12T06:39:36.843Z,9.00
2023-01-12T06:42:24.523Z,8.90
2023-01-12T06:44:52.005Z,8.20
2023-01-12T06:47:19.408Z,9.60
2023-01-12T06:49:46.938Z,10.10
2023-01-12T06:52:14.457Z,14.20
2023-01-12T06:54:41.982Z,8.90
2023-01-12T06:57:09.439Z,11.07
2023-01-12T06:59:38.915Z,14.38
2023-01-12T07:02:06.768Z,14.05
2023-01-12T07:04:34.167Z,13.32
2023-01-12T07:07:01.625Z,12.07
2023-01-12T07:09:28.969Z,9.90
2023-01-12T07:11:56.491Z,11.32
2023-01-12T07:14:23.893Z,10.98
2023-01-12T07:16:51.391Z,10.55
2023-01-12T07:19:18.900Z,8.90
2023-01-12T07:21:46.390Z,7.45
2023-01-12T07:24:13.881Z,6.93
2023-01-12T07:26:41.453Z,7.60
2023-01-12T07:29:11.288Z,7.00
2023-01-12T07:31:38.947Z,7.07
2023-01-12T07:34:06.397Z,10.70
2023-01-12T07:36:33.984Z,12.00
2023-01-12T07:39:01.350Z,12.95
2023-01-12T07:41:47.456Z,13.13
2023-01-12T07:44:14.905Z,15.82
2023-01-12T07:46:42.410Z,18.73
2023-01-12T07:49:10.003Z,18.65
2023-01-12T07:51:37.384Z,18.85
2023-01-12T07:54:04.808Z,15.35
2023-01-12T07:56:32.188Z,14.70
2023-01-12T07:58:59.635Z,13.88
2023-01-12T08:01:27.143Z,14.48
2023-01-12T08:03:54.761Z,15.85
2023-01-12T08:06:22.200Z,20.25
2023-01-12T08:08:49.778Z,22.55
2023-01-12T08:11:17.198Z,18.38
2023-01-12T08:13:44.736Z,18.50
2023-01-12T08:16:32.443Z,16.70
2023-01-12T08:19:20.136Z,15.52
2023-01-12T08:21:52.973Z,13.88
2023-01-12T08:24:22.979Z,16.05
2023-01-12T08:26:52.393Z,18.00
2023-01-12T08:29:32.828Z,16.92
2023-01-12T08:32:04.455Z,15.18
2023-01-12T08:34:32.509Z,13.68
2023-01-12T08:37:01.499Z,14.15
2023-01-12T08:39:29.629Z,13.98
2023-01-12T08:41:57.842Z,13.95
2023-01-12T08:44:28.777Z,12.68
2023-01-12T08:46:56.322Z,13.65
2023-01-12T08:49:25.119Z,14.10
2023-01-12T08:51:52.621Z,14.20
2023-01-12T08:54:21.187Z,14.98
2023-01-12T08:56:49.432Z,15.45
2023-01-12T08:59:19.156Z,17.50
2023-01-12T09:01:46.811Z,17.40
2023-01-12T09:04:14.504Z,17.70
2023-01-12T09:06:43.010Z,16.58
2023-01-12T09:09:11.704Z,15.40
2023-01-12T09:11:39.756Z,12.02
2023-01-12T09:14:07.325Z,13.23
2023-01-12T09:16:34.857Z,12.13
2023-01-12T09:19:02.476Z,11.60
2023-01-12T09:21:30.490Z,11.15
2023-01-12T09:23:58.046Z,11.88
2023-01-12T09:26:31.898Z,11.98
2023-01-12T09:29:04.111Z,11.32
2023-01-12T09:31:33.126Z,10.32
2023-01-12T09:34:00.622Z,9.65
2023-01-12T09:36:29.273Z,10.23
2023-01-12T09:38:57.273Z,8.45
2023-01-12T09:41:51.257Z,8.75
2023-01-12T09:44:56.323Z,8.73
2023-01-12T09:47:41.127Z,7.85
2023-01-12T09:50:13.525Z,8.90
2023-01-12T09:52:46.331Z,8.80
2023-01-12T09:55:24.226Z,9.05
2023-01-12T09:58:10.270Z,8.07
2023-01-12T10:00:37.729Z,9.13
2023-01-12T10:03:11.285Z,9.40
2023-01-12T10:05:39.919Z,7.30
2023-01-12T10:08:14.516Z,8.75
2023-01-12T10:10:44.368Z,8.40
2023-01-12T10:13:14.531Z,8.32
2023-01-12T10:15:55.401Z,8.07
2023-01-12T10:18:31.711Z,8.32
2023-01-12T10:23:28.368Z,11.15
2023-01-12T10:26:05.995Z,11.27
2023-01-12T10:28:35.412Z,10.30
2023-01-12T10:31:03.172Z,9.90
2023-01-12T10:33:32.842Z,10.10
2023-01-12T10:36:19.964Z,9.75
2023-01-12T10:38:59.548Z,14.50
2023-01-12T10:41:37.934Z,65.38
2023-01-12T10:44:07.669Z,64.43
2023-01-12T10:46:36.075Z,18.42
2023-01-12T10:49:20.250Z,12.60
2023-01-12T10:51:53.916Z,12.10
2023-01-12T10:54:41.490Z,12.23
2023-01-12T10:57:15.060Z,11.20
2023-01-12T10:59:42.616Z,9.95
2023-01-12T11:02:11.777Z,10.75
2023-01-12T11:04:43.804Z,10.55
2023-01-12T11:07:29.899Z,10.25
2023-01-12T11:09:58.456Z,10.02
2023-01-12T11:12:34.403Z,10.02
2023-01-12T11:15:10.989Z,10.20
2023-01-12T11:17:49.737Z,10.23
2023-01-12T11:20:24.126Z,9.70
2023-01-12T11:22:54.609Z,8.15
2023-01-12T11:25:23.997Z,8.77
2023-01-12T11:28:06.920Z,9.85
2023-01-12T11:30:40.599Z,9.98
2023-01-12T11:33:13.408Z,9.63
2023-01-12T11:35:42.501Z,11.68
2023-01-12T11:38:14.399Z,12.40
2023-01-12T11:40:42.605Z,12.73
2023-01-12T11:43:39.987Z,11.27
2023-01-12T11:46:13.536Z,11.85
2023-01-12T11:48:48.614Z,11.98
2023-01-12T11:51:16.213Z,12.60
2023-01-12T11:53:43.949Z,12.60
2023-01-12T11:56:29.343Z,11.90
2023-01-12T11:59:12.088Z,11.10
2023-01-12T12:02:05.977Z,11.30
2023-01-12T12:04:52.334Z,11.05
2023-01-12T12:07:28.241Z,11.23
2023-01-12T12:10:05.886Z,9.73
2023-01-12T12:12:36.181Z,11.70
2023-01-12T12:15:03.609Z,13.27
2023-01-12T12:17:42.516Z,13.75
2023-01-12T12:20:17.624Z,13.70
2023-01-12T12:22:57.538Z,12.15
2023-01-12T12:25:25.015Z,13.02
2023-01-12T12:27:59.450Z,8.50
2023-01-12T12:30:26.927Z,9.23
2023-01-12T12:32:58.212Z,10.02
2023-01-12T12:35:44.510Z,10.95
2023-01-12T12:38:27.026Z,10.23
2023-01-12T12:41:32.040Z,10.35
2023-01-12T12:44:37.417Z,11.82
2023-01-12T12:47:23.624Z,12.23
2023-01-12T12:49:52.355Z,9.68
2023-01-12T12:52:20.271Z,9.27
2023-01-12T12:54:47.787Z,9.25
2023-01-12T12:57:15.684Z,8.48
2023-01-12T12:59:43.107Z,7.60
2023-01-12T13:02:30.806Z,7.95
2023-01-12T13:04:58.820Z,8.55
2023-01-12T13:07:26.880Z,9.25
2023-01-12T13:10:03.403Z,9.43
2023-01-12T13:12:32.148Z,8.05
2023-01-12T13:15:11.629Z,10.93
2023-01-12T13:17:43.052Z,13.43
2023-01-12T13:20:24.141Z,13.63
2023-01-12T13:22:52.997Z,15.23
2023-01-12T13:25:20.628Z,17.10
2023-01-12T13:27:55.631Z,16.55
2023-01-12T13:30:29.686Z,16.75
2023-01-12T13:32:58.578Z,15.20
2023-01-12T13:35:28.698Z,15.73
2023-01-12T13:38:02.239Z,16.17
2023-01-12T13:40:33.092Z,15.98
2023-01-12T13:43:19.784Z,16.50
2023-01-12T13:45:50.716Z,19.65
2023-01-12T13:48:19.808Z,18.52
2023-01-12T13:50:52.489Z,18.65
2023-01-12T13:53:25.696Z,17.00
2023-01-12T13:56:04.619Z,17.15
2023-01-12T13:58:42.584Z,16.95
2023-01-12T14:01:26.286Z,15.55
2023-01-12T14:04:01.283Z,14.43
2023-01-12T14:06:38.497Z,14.68
2023-01-12T14:09:14.830Z,15.43
2023-01-12T14:11:48.485Z,16.52
2023-01-12T14:14:53.778Z,15.75
2023-01-12T14:17:46.013Z,15.23
2023-01-12T14:20:18.185Z,14.63
2023-01-12T14:22:46.172Z,14.23
2023-01-12T14:25:21.669Z,13.80
2023-01-12T14:27:57.093Z,13.95
2023-01-12T14:30:25.895Z,15.60
2023-01-12T14:32:53.768Z,14.07
2023-01-12T14:35:22.238Z,15.68
2023-01-12T14:37:51.295Z,14.10
2023-01-12T14:40:30.984Z,14.55
2023-01-12T14:43:17.631Z,15.05
2023-01-12T14:46:13.661Z,15.52
2023-01-12T14:48:44.113Z,13.57
2023-01-12T14:51:11.510Z,13.27
2023-01-12T14:53:40.249Z,13.48
2023-01-12T14:56:14.678Z,13.85
2023-01-12T14:58:42.244Z,13.97
2023-01-12T15:01:11.185Z,14.05
2023-01-12T15:03:43.828Z,14.73
2023-01-12T15:06:15.230Z,15.98
2023-01-12T15:08:53.029Z,15.13
2023-01-12T15:11:29.510Z,15.88
2023-01-12T15:13:58.204Z,14.75
2023-01-12T15:16:44.176Z,15.65
2023-01-12T15:19:30.565Z,14.82
2023-01-12T15:22:17.538Z,15.18
2023-01-12T15:25:03.876Z,14.38
2023-01-12T15:27:32.090Z,14.27
2023-01-12T15:29:59.421Z,11.63
2023-01-12T15:32:41.443Z,11.38
2023-01-12T15:35:16.197Z,10.85
2023-01-12T15:37:43.794Z,11.75
2023-01-12T15:40:13.550Z,10.27
2023-01-12T15:42:41.071Z,11.93
2023-01-12T15:45:29.102Z,13.07
2023-01-12T15:47:56.710Z,12.82
2023-01-12T15:50:24.392Z,13.40
2023-01-12T15:52:52.009Z,14.88
2023-01-12T15:55:21.071Z,30.73
2023-01-12T15:57:48.667Z,31.05
2023-01-12T16:00:18.746Z,18.88
2023-01-12T16:02:48.667Z,18.35
2023-01-12T16:05:17.966Z,13.73
2023-01-12T16:07:48.151Z,11.23
2023-01-12T16:10:16.513Z,11.02
2023-01-12T16:12:44.519Z,11.65
2023-01-12T16:15:17.216Z,10.90
2023-01-12T16:17:46.030Z,12.10
2023-01-12T16:20:16.065Z,10.20
2023-01-12T16:22:43.625Z,8.88
2023-01-12T16:25:11.404Z,9.32
2023-01-12T16:27:39.390Z,11.00
2023-01-12T16:30:07.679Z,11.10
2023-01-12T16:32:35.173Z,11.02
2023-01-12T16:35:02.717Z,10.07
2023-01-12T16:37:33.379Z,9.60
2023-01-12T16:40:01.294Z,9.30
2023-01-12T16:42:29.648Z,9.18
2023-01-12T16:44:57.178Z,9.25
2023-01-12T16:47:24.715Z,9.68
2023-01-12T16:49:52.580Z,8.95
2023-01-12T16:52:21.134Z,9.18
2023-01-12T16:54:48.496Z,9.25
2023-01-12T16:57:17.153Z,9.43
2023-01-12T16:59:44.729Z,9.35
2023-01-12T17:02:14.640Z,9.60
2023-01-12T17:04:43.705Z,9.23
2023-01-12T17:07:11.508Z,9.90
2023-01-12T17:09:39.616Z,10.07
2023-01-12T17:12:07.604Z,10.95
2023-01-12T17:14:35.464Z,12.73
2023-01-12T17:17:05.376Z,13.52
2023-01-12T17:19:34.063Z,12.07
2023-01-12T17:22:02.648Z,12.15
2023-01-12T17:24:30.803Z,9.60
2023-01-12T17:26:59.522Z,9.43
2023-01-12T17:29:27.569Z,8.50
2023-01-12T17:32:03.389Z,7.80
2023-01-12T17:34:32.329Z,10.00
2023-01-12T17:37:02.946Z,8.45
2023-01-12T17:39:31.247Z,7.78
2023-01-12T17:42:18.352Z,8.48
2023-01-12T17:44:45.854Z,8.95
2023-01-12T17:47:14.340Z,9.07
2023-01-12T17:49:42.686Z,9.30
2023-01-12T17:52:10.099Z,9.93
2023-01-12T17:54:38.589Z,11.15
2023-01-12T17:57:07.076Z,9.65
2023-01-12T17:59:35.590Z,10.60
2023-01-12T18:02:03.109Z,12.55
2023-01-12T18:04:31.459Z,11.27
2023-01-12T18:06:58.925Z,10.65
2023-01-12T18:09:28.029Z,10.60
2023-01-12T18:11:55.618Z,11.70
2023-01-12T18:14:25.003Z,11.18
2023-01-12T18:16:52.680Z,12.02
2023-01-12T18:19:20.054Z,11.45
2023-01-12T18:21:47.548Z,10.55
2023-01-12T18:24:14.929Z,11.60
2023-01-12T18:26:42.459Z,11.23
2023-01-12T18:29:09.843Z,12.40
2023-01-12T18:31:37.691Z,11.80
2023-01-12T18:34:06.311Z,11.98
2023-01-12T18:36:35.207Z,14.18
2023-01-12T18:39:03.103Z,13.18
2023-01-12T18:41:49.480Z,15.38
2023-01-12T18:44:17.254Z,10.63
2023-01-12T18:47:03.456Z,10.68
2023-01-12T18:49:34.767Z,10.23
2023-01-12T18:52:21.660Z,10.35
2023-01-12T18:54:51.703Z,10.13
2023-01-12T18:57:21.509Z,11.13
2023-01-12T18:59:51.662Z,11.98
2023-01-12T19:02:19.994Z,11.70
2023-01-12T19:04:50.807Z,11.90
2023-01-12T19:07:31.754Z,12.25
2023-01-12T19:10:00.348Z,12.02
2023-01-12T19:12:30.694Z,13.82
2023-01-12T19:15:21.223Z,12.90
2023-01-12T19:17:48.676Z,13.55
2023-01-12T19:20:17.320Z,13.15
2023-01-12T19:23:03.409Z,13.25
2023-01-12T19:25:49.507Z,12.93
2023-01-12T19:28:35.590Z,15.35
2023-01-12T19:31:05.089Z,14.30
2023-01-12T19:33:32.973Z,14.30
2023-01-12T19:36:05.317Z,14.32
2023-01-12T19:38:39.493Z,14.50
2023-01-12T19:41:13.472Z,14.30
2023-01-12T19:43:45.931Z,14.73
2023-01-12T19:46:13.709Z,14.45
2023-01-12T19:48:41.287Z,14.32
2023-01-12T19:51:13.501Z,14.25
2023-01-12T19:53:41.973Z,14.35
2023-01-12T19:56:14.569Z,14.45
2023-01-12T19:58:42.479Z,15.23
2023-01-12T20:01:20.836Z,14.40
2023-01-12T20:03:48.640Z,14.68
2023-01-12T20:06:16.116Z,14.68
2023-01-12T20:08:44.116Z,14.68
2023-01-12T20:11:11.698Z,15.02
2023-01-12T20:13:39.598Z,37.38
2023-01-12T20:16:08.187Z,28.40
2023-01-12T20:18:35.659Z,14.98
2023-01-12T20:21:07.562Z,13.52
2023-01-12T20:23:35.156Z,13.70
2023-01-12T20:26:02.669Z,14.23
2023-01-12T20:28:30.273Z,13.10
2023-01-12T20:30:59.368Z,13.73
2023-01-12T20:33:28.474Z,14.13
2023-01-12T20:35:56.029Z,13.35
2023-01-12T20:38:23.582Z,14.00
2023-01-12T20:40:50.959Z,12.63
2023-01-12T20:43:18.376Z,13.13
2023-01-12T20:45:45.998Z,13.52
2023-01-12T20:48:14.209Z,14.57
2023-01-12T20:50:48.454Z,13.93
2023-01-12T20:53:17.146Z,13.55
2023-01-12T20:55:50.077Z,13.13
2023-01-12T20:58:17.554Z,12.65
2023-01-12T21:00:45.109Z,12.63
2023-01-12T21:03:12.595Z,12.48
2023-01-12T21:05:43.951Z,12.55
2023-01-12T21:08:11.476Z,12.45
2023-01-12T21:10:39.669Z,11.98
2023-01-12T21:13:07.667Z,11.80
2023-01-12T21:15:35.444Z,12.55
2023-01-12T21:18:02.804Z,13.07
2023-01-12T21:20:30.725Z,12.70
2023-01-12T21:22:58.161Z,12.57
2023-01-12T21:25:27.928Z,12.43
2023-01-12T21:27:56.073Z,12.05
2023-01-12T21:30:23.625Z,12.35
2023-01-12T21:32:53.506Z,12.38
2023-01-12T21:35:21.012Z,11.85
2023-01-12T21:37:48.434Z,12.57
2023-01-12T21:40:16.675Z,12.95
2023-01-12T21:43:02.707Z,12.88
2023-01-12T21:45:30.253Z,11.65
2023-01-12T21:47:57.602Z,12.48
2023-01-12T21:50:25.070Z,12.23
2023-01-12T21:52:52.427Z,12.80
2023-01-12T21:55:20.054Z,12.02
2023-01-12T21:57:47.863Z,11.85
2023-01-12T22:00:15.793Z,12.02
2023-01-12T22:02:44.370Z,12.02
2023-01-12T22:05:13.713Z,12.45
2023-01-12T22:07:41.523Z,12.57
2023-01-12T22:10:22.243Z,12.98
2023-01-12T22:12:51.124Z,12.73
2023-01-12T22:15:19.161Z,12.85
2023-01-12T22:17:47.468Z,11.27
2023-01-12T22:20:16.573Z,11.75
2023-01-12T22:22:44.522Z,11.20
2023-01-12T22:25:13.535Z,11.15
2023-01-12T22:27:44.039Z,12.10
2023-01-12T22:30:12.983Z,11.77
2023-01-12T22:32:41.395Z,10.82
2023-01-12T22:35:09.183Z,10.63
2023-01-12T22:37:37.432Z,12.10
2023-01-12T22:40:05.809Z,11.52
2023-01-12T22:42:51.845Z,11.50
2023-01-12T22:45:19.348Z,10.80
2023-01-12T22:47:51.065Z,10.48
2023-01-12T22:50:18.501Z,11.23
2023-01-12T22:52:45.840Z,10.70
2023-01-12T22:55:13.265Z,11.27
2023-01-12T22:57:42.010Z,10.38
2023-01-12T23:00:18.869Z,9.60
2023-01-12T23:03:02.671Z,10.73
2023-01-12T23:05:35.905Z,10.25
2023-01-12T23:08:04.949Z,10.52
2023-01-12T23:10:32.344Z,10.30
2023-01-12T23:13:11.831Z,10.05
2023-01-12T23:15:39.813Z,9.05
2023-01-12T23:18:07.537Z,9.38
2023-01-12T23:20:36.228Z,8.05
2023-01-12T23:23:04.231Z,8.52
2023-01-12T23:25:35.209Z,9.68
2023-01-12T23:28:03.038Z,9.38
2023-01-12T23:30:30.784Z,8.00
2023-01-12T23:33:03.952Z,8.55
2023-01-12T23:35:35.758Z,9.45
2023-01-12T23:38:03.239Z,8.50
2023-01-12T23:40:30.655Z,8.70
2023-01-12T23:42:58.939Z,8.30
2023-01-12T23:45:26.329Z,8.45
2023-01-12T23:47:53.732Z,9.05
2023-01-12T23:50:21.318Z,9.40
2023-01-12T23:52:50.162Z,8.38
2023-01-12T23:55:18.073Z,8.38
2023-01-12T23:57:48.495Z,8.45
